sensor_id;sensor_type;location;lat;lon;timestamp;P1;durP1;ratioP1;P2;durP2;ratioP2
70705;SDS011;59320;52.316;10.870;2023-09-07T00:01:21;3.63;;;3.05;;
70705;SDS011;59320;52.316;10.870;2023-09-07T00:03:48;3.80;;;3.38;;
70705;SDS011;59320;52.316;10.870;2023-09-07T00:06:15;4.38;;;3.13;;
70705;SDS011;59320;52.316;10.870;2023-09-07T00:08:43;4.00;;;3.20;;
70705;SDS011;59320;52.316;10.870;2023-09-07T00:11:12;3.63;;;2.97;;
70705;SDS011;59320;52.316;10.870;2023-09-07T00:13:39;4.00;;;3.20;;
70705;SDS011;59320;52.316;10.870;2023-09-07T00:16:06;5.03;;;3.28;;
70705;SDS011;59320;52.316;10.870;2023-09-07T00:18:34;4.13;;;3.20;;
70705;SDS011;59320;52.316;10.870;2023-09-07T00:21:01;3.55;;;3.25;;
70705;SDS011;59320;52.316;10.870;2023-09-07T00:23:28;4.68;;;3.28;;
70705;SDS011;59320;52.316;10.870;2023-09-07T00:25:55;5.30;;;3.38;;
70705;SDS011;59320;52.316;10.870;2023-09-07T00:28:24;3.78;;;3.17;;
70705;SDS011;59320;52.316;10.870;2023-09-07T00:30:52;5.18;;;3.42;;
70705;SDS011;59320;52.316;10.870;2023-09-07T00:33:20;5.55;;;3.58;;
70705;SDS011;59320;52.316;10.870;2023-09-07T00:35:47;3.75;;;3.30;;
70705;SDS011;59320;52.316;10.870;2023-09-07T00:38:14;4.90;;;3.42;;
70705;SDS011;59320;52.316;10.870;2023-09-07T00:40:42;5.15;;;3.42;;
70705;SDS011;59320;52.316;10.870;2023-09-07T00:43:10;3.50;;;3.20;;
70705;SDS011;59320;52.316;10.870;2023-09-07T00:45:39;4.90;;;3.50;;
70705;SDS011;59320;52.316;10.870;2023-09-07T00:48:06;7.07;;;3.55;;
70705;SDS011;59320;52.316;10.870;2023-09-07T00:50:34;4.05;;;3.38;;
70705;SDS011;59320;52.316;10.870;2023-09-07T00:53:02;3.72;;;3.42;;
70705;SDS011;59320;52.316;10.870;2023-09-07T00:55:32;6.05;;;3.70;;
70705;SDS011;59320;52.316;10.870;2023-09-07T00:58:00;3.95;;;3.55;;
70705;SDS011;59320;52.316;10.870;2023-09-07T01:00:28;3.80;;;3.22;;
70705;SDS011;59320;52.316;10.870;2023-09-07T01:02:57;4.95;;;3.60;;
70705;SDS011;59320;52.316;10.870;2023-09-07T01:05:27;5.25;;;3.60;;
70705;SDS011;59320;52.316;10.870;2023-09-07T01:08:01;4.38;;;3.75;;
70705;SDS011;59320;52.316;10.870;2023-09-07T01:10:36;5.80;;;3.72;;
70705;SDS011;59320;52.316;10.870;2023-09-07T01:13:03;4.03;;;3.55;;
70705;SDS011;59320;52.316;10.870;2023-09-07T01:15:30;4.07;;;3.38;;
70705;SDS011;59320;52.316;10.870;2023-09-07T01:17:59;6.88;;;3.83;;
70705;SDS011;59320;52.316;10.870;2023-09-07T01:20:28;4.85;;;3.78;;
70705;SDS011;59320;52.316;10.870;2023-09-07T01:22:58;4.57;;;3.63;;
70705;SDS011;59320;52.316;10.870;2023-09-07T01:25:26;4.45;;;3.70;;
70705;SDS011;59320;52.316;10.870;2023-09-07T01:27:53;5.32;;;3.67;;
70705;SDS011;59320;52.316;10.870;2023-09-07T01:30:21;4.00;;;3.53;;
70705;SDS011;59320;52.316;10.870;2023-09-07T01:32:48;5.03;;;3.47;;
70705;SDS011;59320;52.316;10.870;2023-09-07T01:35:15;4.68;;;3.78;;
70705;SDS011;59320;52.316;10.870;2023-09-07T01:37:47;4.55;;;3.83;;
70705;SDS011;59320;52.316;10.870;2023-09-07T01:40:15;4.93;;;3.92;;
70705;SDS011;59320;52.316;10.870;2023-09-07T01:42:43;5.90;;;3.75;;
70705;SDS011;59320;52.316;10.870;2023-09-07T01:45:10;5.32;;;3.67;;
70705;SDS011;59320;52.316;10.870;2023-09-07T01:47:37;6.05;;;4.22;;
70705;SDS011;59320;52.316;10.870;2023-09-07T01:50:05;5.13;;;3.67;;
70705;SDS011;59320;52.316;10.870;2023-09-07T01:55:29;3.80;;;3.50;;
70705;SDS011;59320;52.316;10.870;2023-09-07T01:57:58;4.43;;;3.80;;
70705;SDS011;59320;52.316;10.870;2023-09-07T02:00:25;4.15;;;3.60;;
70705;SDS011;59320;52.316;10.870;2023-09-07T02:02:52;5.25;;;3.63;;
70705;SDS011;59320;52.316;10.870;2023-09-07T02:05:19;3.83;;;3.53;;
70705;SDS011;59320;52.316;10.870;2023-09-07T02:07:47;5.05;;;4.00;;
70705;SDS011;59320;52.316;10.870;2023-09-07T02:10:15;5.85;;;3.75;;
70705;SDS011;59320;52.316;10.870;2023-09-07T02:12:45;4.25;;;3.65;;
70705;SDS011;59320;52.316;10.870;2023-09-07T02:15:12;4.75;;;4.03;;
70705;SDS011;59320;52.316;10.870;2023-09-07T02:17:40;5.43;;;3.75;;
70705;SDS011;59320;52.316;10.870;2023-09-07T02:20:13;4.65;;;3.67;;
70705;SDS011;59320;52.316;10.870;2023-09-07T02:22:40;4.47;;;3.70;;
70705;SDS011;59320;52.316;10.870;2023-09-07T02:25:08;3.78;;;3.38;;
70705;SDS011;59320;52.316;10.870;2023-09-07T02:27:35;4.35;;;3.80;;
70705;SDS011;59320;52.316;10.870;2023-09-07T02:30:04;5.80;;;3.97;;
70705;SDS011;59320;52.316;10.870;2023-09-07T02:32:32;3.92;;;3.53;;
70705;SDS011;59320;52.316;10.870;2023-09-07T02:34:59;5.38;;;4.20;;
70705;SDS011;59320;52.316;10.870;2023-09-07T02:37:27;5.50;;;3.97;;
70705;SDS011;59320;52.316;10.870;2023-09-07T02:39:54;4.60;;;3.80;;
70705;SDS011;59320;52.316;10.870;2023-09-07T02:42:21;8.23;;;3.90;;
70705;SDS011;59320;52.316;10.870;2023-09-07T02:44:50;4.18;;;3.65;;
70705;SDS011;59320;52.316;10.870;2023-09-07T02:47:18;3.92;;;3.53;;
70705;SDS011;59320;52.316;10.870;2023-09-07T02:49:46;4.38;;;3.90;;
70705;SDS011;59320;52.316;10.870;2023-09-07T02:52:14;4.40;;;4.00;;
70705;SDS011;59320;52.316;10.870;2023-09-07T02:54:41;6.28;;;3.80;;
70705;SDS011;59320;52.316;10.870;2023-09-07T02:57:08;4.40;;;4.00;;
70705;SDS011;59320;52.316;10.870;2023-09-07T02:59:35;7.00;;;3.95;;
70705;SDS011;59320;52.316;10.870;2023-09-07T03:02:03;5.60;;;3.60;;
70705;SDS011;59320;52.316;10.870;2023-09-07T03:04:32;4.22;;;3.67;;
70705;SDS011;59320;52.316;10.870;2023-09-07T03:07:00;5.25;;;4.07;;
70705;SDS011;59320;52.316;10.870;2023-09-07T03:09:27;3.70;;;3.40;;
70705;SDS011;59320;52.316;10.870;2023-09-07T03:11:55;5.68;;;3.92;;
70705;SDS011;59320;52.316;10.870;2023-09-07T03:14:22;5.07;;;3.42;;
70705;SDS011;59320;52.316;10.870;2023-09-07T03:16:50;4.32;;;3.92;;
70705;SDS011;59320;52.316;10.870;2023-09-07T03:19:17;5.20;;;3.50;;
70705;SDS011;59320;52.316;10.870;2023-09-07T03:21:46;5.32;;;4.20;;
70705;SDS011;59320;52.316;10.870;2023-09-07T03:24:13;5.88;;;4.00;;
70705;SDS011;59320;52.316;10.870;2023-09-07T03:26:41;4.40;;;4.00;;
70705;SDS011;59320;52.316;10.870;2023-09-07T03:29:09;6.25;;;3.53;;
70705;SDS011;59320;52.316;10.870;2023-09-07T03:31:36;5.75;;;3.90;;
70705;SDS011;59320;52.316;10.870;2023-09-07T03:34:03;5.75;;;3.60;;
70705;SDS011;59320;52.316;10.870;2023-09-07T03:36:32;6.25;;;4.05;;
70705;SDS011;59320;52.316;10.870;2023-09-07T03:39:01;5.50;;;4.13;;
70705;SDS011;59320;52.316;10.870;2023-09-07T03:41:28;4.47;;;3.75;;
70705;SDS011;59320;52.316;10.870;2023-09-07T03:43:57;4.57;;;3.88;;
70705;SDS011;59320;52.316;10.870;2023-09-07T03:46:24;4.28;;;3.88;;
70705;SDS011;59320;52.316;10.870;2023-09-07T03:48:52;4.78;;;3.55;;
70705;SDS011;59320;52.316;10.870;2023-09-07T03:51:19;4.57;;;3.88;;
70705;SDS011;59320;52.316;10.870;2023-09-07T03:53:46;4.45;;;4.00;;
70705;SDS011;59320;52.316;10.870;2023-09-07T03:56:15;5.63;;;3.92;;
70705;SDS011;59320;52.316;10.870;2023-09-07T03:58:42;5.40;;;3.85;;
70705;SDS011;59320;52.316;10.870;2023-09-07T04:01:09;5.22;;;3.70;;
70705;SDS011;59320;52.316;10.870;2023-09-07T04:03:37;5.72;;;3.70;;
70705;SDS011;59320;52.316;10.870;2023-09-07T04:06:05;5.38;;;3.95;;
70705;SDS011;59320;52.316;10.870;2023-09-07T04:08:33;6.68;;;3.90;;
70705;SDS011;59320;52.316;10.870;2023-09-07T04:11:03;5.47;;;4.03;;
70705;SDS011;59320;52.316;10.870;2023-09-07T04:13:32;4.28;;;3.88;;
70705;SDS011;59320;52.316;10.870;2023-09-07T04:15:59;4.32;;;3.83;;
70705;SDS011;59320;52.316;10.870;2023-09-07T04:18:26;4.47;;;4.05;;
70705;SDS011;59320;52.316;10.870;2023-09-07T04:21:03;3.92;;;3.40;;
70705;SDS011;59320;52.316;10.870;2023-09-07T04:23:32;4.18;;;3.78;;
70705;SDS011;59320;52.316;10.870;2023-09-07T04:26:06;4.30;;;3.72;;
70705;SDS011;59320;52.316;10.870;2023-09-07T04:28:35;4.97;;;3.73;;
70705;SDS011;59320;52.316;10.870;2023-09-07T04:31:03;4.38;;;3.80;;
70705;SDS011;59320;52.316;10.870;2023-09-07T04:33:31;4.03;;;3.63;;
70705;SDS011;59320;52.316;10.870;2023-09-07T04:36:06;5.68;;;4.07;;
70705;SDS011;59320;52.316;10.870;2023-09-07T04:38:34;3.95;;;3.55;;
70705;SDS011;59320;52.316;10.870;2023-09-07T04:41:05;4.93;;;3.50;;
70705;SDS011;59320;52.316;10.870;2023-09-07T04:43:33;4.45;;;4.05;;
70705;SDS011;59320;52.316;10.870;2023-09-07T04:46:02;4.50;;;4.10;;
70705;SDS011;59320;52.316;10.870;2023-09-07T04:48:29;5.88;;;3.67;;
70705;SDS011;59320;52.316;10.870;2023-09-07T04:50:57;5.28;;;3.67;;
70705;SDS011;59320;52.316;10.870;2023-09-07T04:53:25;6.45;;;3.72;;
70705;SDS011;59320;52.316;10.870;2023-09-07T04:55:54;4.28;;;3.70;;
70705;SDS011;59320;52.316;10.870;2023-09-07T04:58:21;4.22;;;3.83;;
70705;SDS011;59320;52.316;10.870;2023-09-07T05:00:50;7.30;;;4.45;;
70705;SDS011;59320;52.316;10.870;2023-09-07T05:03:17;5.57;;;3.70;;
70705;SDS011;59320;52.316;10.870;2023-09-07T05:05:45;6.03;;;3.72;;
70705;SDS011;59320;52.316;10.870;2023-09-07T05:08:17;4.20;;;3.80;;
70705;SDS011;59320;52.316;10.870;2023-09-07T05:10:45;5.32;;;4.10;;
70705;SDS011;59320;52.316;10.870;2023-09-07T05:13:12;5.35;;;4.07;;
70705;SDS011;59320;52.316;10.870;2023-09-07T05:15:46;6.88;;;4.35;;
70705;SDS011;59320;52.316;10.870;2023-09-07T05:18:15;6.25;;;3.90;;
70705;SDS011;59320;52.316;10.870;2023-09-07T05:20:43;5.05;;;4.10;;
70705;SDS011;59320;52.316;10.870;2023-09-07T05:23:11;5.80;;;4.30;;
70705;SDS011;59320;52.316;10.870;2023-09-07T05:25:44;6.13;;;4.00;;
70705;SDS011;59320;52.316;10.870;2023-09-07T05:28:12;4.47;;;4.07;;
70705;SDS011;59320;52.316;10.870;2023-09-07T05:30:41;4.82;;;4.22;;
70705;SDS011;59320;52.316;10.870;2023-09-07T05:33:08;3.83;;;3.50;;
70705;SDS011;59320;52.316;10.870;2023-09-07T05:35:38;5.68;;;4.22;;
70705;SDS011;59320;52.316;10.870;2023-09-07T05:38:05;5.75;;;3.85;;
70705;SDS011;59320;52.316;10.870;2023-09-07T05:40:33;4.50;;;4.00;;
70705;SDS011;59320;52.316;10.870;2023-09-07T05:43:01;4.90;;;3.60;;
70705;SDS011;59320;52.316;10.870;2023-09-07T05:45:30;6.25;;;4.07;;
70705;SDS011;59320;52.316;10.870;2023-09-07T05:47:57;6.03;;;3.88;;
70705;SDS011;59320;52.316;10.870;2023-09-07T05:50:24;4.57;;;4.13;;
70705;SDS011;59320;52.316;10.870;2023-09-07T05:52:54;5.13;;;4.00;;
70705;SDS011;59320;52.316;10.870;2023-09-07T05:55:21;4.85;;;3.88;;
70705;SDS011;59320;52.316;10.870;2023-09-07T05:57:48;4.88;;;4.20;;
70705;SDS011;59320;52.316;10.870;2023-09-07T06:00:16;5.25;;;4.20;;
70705;SDS011;59320;52.316;10.870;2023-09-07T06:02:45;5.10;;;4.30;;
70705;SDS011;59320;52.316;10.870;2023-09-07T06:05:12;6.53;;;4.50;;
70705;SDS011;59320;52.316;10.870;2023-09-07T06:07:40;5.25;;;3.80;;
70705;SDS011;59320;52.316;10.870;2023-09-07T06:10:09;4.65;;;4.15;;
70705;SDS011;59320;52.316;10.870;2023-09-07T06:12:37;5.07;;;4.07;;
70705;SDS011;59320;52.316;10.870;2023-09-07T06:15:05;4.95;;;4.10;;
70705;SDS011;59320;52.316;10.870;2023-09-07T06:17:34;4.82;;;4.15;;
70705;SDS011;59320;52.316;10.870;2023-09-07T06:20:01;4.90;;;4.40;;
70705;SDS011;59320;52.316;10.870;2023-09-07T06:22:30;5.68;;;4.00;;
70705;SDS011;59320;52.316;10.870;2023-09-07T06:24:57;5.03;;;4.20;;
70705;SDS011;59320;52.316;10.870;2023-09-07T06:27:26;4.97;;;4.47;;
70705;SDS011;59320;52.316;10.870;2023-09-07T06:29:54;5.03;;;3.92;;
70705;SDS011;59320;52.316;10.870;2023-09-07T06:32:21;4.32;;;3.92;;
70705;SDS011;59320;52.316;10.870;2023-09-07T06:34:48;5.55;;;4.35;;
70705;SDS011;59320;52.316;10.870;2023-09-07T06:37:16;4.75;;;4.28;;
70705;SDS011;59320;52.316;10.870;2023-09-07T06:39:43;4.40;;;4.00;;
70705;SDS011;59320;52.316;10.870;2023-09-07T06:42:11;5.75;;;4.32;;
70705;SDS011;59320;52.316;10.870;2023-09-07T06:47:13;4.75;;;4.13;;
70705;SDS011;59320;52.316;10.870;2023-09-07T06:49:40;4.90;;;4.20;;
70705;SDS011;59320;52.316;10.870;2023-09-07T06:52:08;5.63;;;4.60;;
70705;SDS011;59320;52.316;10.870;2023-09-07T06:54:37;5.35;;;4.55;;
70705;SDS011;59320;52.316;10.870;2023-09-07T06:57:06;4.47;;;4.07;;
70705;SDS011;59320;52.316;10.870;2023-09-07T06:59:34;4.80;;;4.40;;
70705;SDS011;59320;52.316;10.870;2023-09-07T07:02:02;5.32;;;4.55;;
70705;SDS011;59320;52.316;10.870;2023-09-07T07:04:31;6.00;;;4.40;;
70705;SDS011;59320;52.316;10.870;2023-09-07T07:06:58;5.70;;;4.80;;
70705;SDS011;59320;52.316;10.870;2023-09-07T07:09:26;6.05;;;4.60;;
70705;SDS011;59320;52.316;10.870;2023-09-07T07:11:55;5.45;;;4.28;;
70705;SDS011;59320;52.316;10.870;2023-09-07T07:14:22;8.38;;;4.38;;
70705;SDS011;59320;52.316;10.870;2023-09-07T07:16:50;5.82;;;4.47;;
70705;SDS011;59320;52.316;10.870;2023-09-07T07:19:18;5.45;;;4.68;;
70705;SDS011;59320;52.316;10.870;2023-09-07T07:21:45;4.82;;;4.25;;
70705;SDS011;59320;52.316;10.870;2023-09-07T07:24:13;6.63;;;4.63;;
70705;SDS011;59320;52.316;10.870;2023-09-07T07:26:40;6.57;;;4.70;;
70705;SDS011;59320;52.316;10.870;2023-09-07T07:29:07;5.00;;;4.32;;
70705;SDS011;59320;52.316;10.870;2023-09-07T07:31:35;5.72;;;4.40;;
70705;SDS011;59320;52.316;10.870;2023-09-07T07:34:03;6.40;;;4.43;;
70705;SDS011;59320;52.316;10.870;2023-09-07T07:37:12;6.85;;;4.35;;
70705;SDS011;59320;52.316;10.870;2023-09-07T07:40:00;4.72;;;4.22;;
70705;SDS011;59320;52.316;10.870;2023-09-07T07:42:39;4.50;;;4.10;;
70705;SDS011;59320;52.316;10.870;2023-09-07T07:45:14;7.90;;;4.40;;
70705;SDS011;59320;52.316;10.870;2023-09-07T07:47:45;5.95;;;4.20;;
70705;SDS011;59320;52.316;10.870;2023-09-07T07:50:12;5.10;;;4.10;;
70705;SDS011;59320;52.316;10.870;2023-09-07T07:52:42;6.13;;;4.35;;
70705;SDS011;59320;52.316;10.870;2023-09-07T07:55:10;5.57;;;4.10;;
70705;SDS011;59320;52.316;10.870;2023-09-07T07:57:39;5.30;;;4.22;;
70705;SDS011;59320;52.316;10.870;2023-09-07T08:00:09;6.15;;;3.72;;
70705;SDS011;59320;52.316;10.870;2023-09-07T08:02:42;6.13;;;4.30;;
70705;SDS011;59320;52.316;10.870;2023-09-07T08:05:10;7.75;;;4.05;;
70705;SDS011;59320;52.316;10.870;2023-09-07T08:07:38;4.93;;;4.25;;
70705;SDS011;59320;52.316;10.870;2023-09-07T08:10:07;5.45;;;3.88;;
70705;SDS011;59320;52.316;10.870;2023-09-07T08:12:34;4.47;;;3.85;;
70705;SDS011;59320;52.316;10.870;2023-09-07T08:15:02;6.40;;;4.20;;
70705;SDS011;59320;52.316;10.870;2023-09-07T08:17:29;6.15;;;4.13;;
70705;SDS011;59320;52.316;10.870;2023-09-07T08:19:57;8.43;;;4.55;;
70705;SDS011;59320;52.316;10.870;2023-09-07T08:22:25;7.28;;;3.97;;
70705;SDS011;59320;52.316;10.870;2023-09-07T08:24:53;5.32;;;4.25;;
70705;SDS011;59320;52.316;10.870;2023-09-07T08:27:22;4.65;;;3.92;;
70705;SDS011;59320;52.316;10.870;2023-09-07T08:29:53;4.60;;;4.05;;
70705;SDS011;59320;52.316;10.870;2023-09-07T08:32:20;5.75;;;4.32;;
70705;SDS011;59320;52.316;10.870;2023-09-07T08:34:48;4.47;;;3.85;;
70705;SDS011;59320;52.316;10.870;2023-09-07T08:37:16;5.15;;;4.40;;
70705;SDS011;59320;52.316;10.870;2023-09-07T08:39:43;5.13;;;4.10;;
70705;SDS011;59320;52.316;10.870;2023-09-07T08:42:11;5.88;;;4.22;;
70705;SDS011;59320;52.316;10.870;2023-09-07T08:44:39;5.30;;;4.05;;
70705;SDS011;59320;52.316;10.870;2023-09-07T08:52:35;6.43;;;4.13;;
70705;SDS011;59320;52.316;10.870;2023-09-07T08:55:03;5.93;;;4.18;;
70705;SDS011;59320;52.316;10.870;2023-09-07T08:57:33;5.20;;;4.18;;
70705;SDS011;59320;52.316;10.870;2023-09-07T09:00:02;5.32;;;4.15;;
70705;SDS011;59320;52.316;10.870;2023-09-07T09:02:33;5.38;;;4.20;;
70705;SDS011;59320;52.316;10.870;2023-09-07T09:05:02;4.57;;;3.92;;
70705;SDS011;59320;52.316;10.870;2023-09-07T09:07:30;5.63;;;3.80;;
70705;SDS011;59320;52.316;10.870;2023-09-07T09:10:07;4.95;;;4.40;;
70705;SDS011;59320;52.316;10.870;2023-09-07T09:12:35;6.80;;;4.30;;
70705;SDS011;59320;52.316;10.870;2023-09-07T09:15:04;8.68;;;4.65;;
70705;SDS011;59320;52.316;10.870;2023-09-07T09:17:32;6.72;;;4.40;;
70705;SDS011;59320;52.316;10.870;2023-09-07T09:20:00;6.38;;;4.18;;
70705;SDS011;59320;52.316;10.870;2023-09-07T09:22:33;7.18;;;3.92;;
70705;SDS011;59320;52.316;10.870;2023-09-07T09:25:11;5.22;;;3.75;;
70705;SDS011;59320;52.316;10.870;2023-09-07T09:27:39;8.77;;;4.10;;
70705;SDS011;59320;52.316;10.870;2023-09-07T09:30:08;4.88;;;4.03;;
70705;SDS011;59320;52.316;10.870;2023-09-07T09:32:37;5.32;;;4.28;;
70705;SDS011;59320;52.316;10.870;2023-09-07T09:35:07;4.32;;;3.92;;
70705;SDS011;59320;52.316;10.870;2023-09-07T09:37:42;9.50;;;4.43;;
70705;SDS011;59320;52.316;10.870;2023-09-07T09:40:11;6.13;;;4.10;;
70705;SDS011;59320;52.316;10.870;2023-09-07T09:42:40;5.00;;;3.92;;
70705;SDS011;59320;52.316;10.870;2023-09-07T09:45:11;6.15;;;4.70;;
70705;SDS011;59320;52.316;10.870;2023-09-07T09:47:39;5.25;;;4.32;;
70705;SDS011;59320;52.316;10.870;2023-09-07T09:50:08;5.47;;;4.60;;
70705;SDS011;59320;52.316;10.870;2023-09-07T09:52:38;9.18;;;4.72;;
70705;SDS011;59320;52.316;10.870;2023-09-07T09:55:05;6.82;;;4.65;;
70705;SDS011;59320;52.316;10.870;2023-09-07T09:57:38;4.43;;;3.90;;
70705;SDS011;59320;52.316;10.870;2023-09-07T10:00:06;9.35;;;4.18;;
70705;SDS011;59320;52.316;10.870;2023-09-07T10:02:47;7.63;;;4.45;;
70705;SDS011;59320;52.316;10.870;2023-09-07T10:05:17;6.07;;;4.50;;
70705;SDS011;59320;52.316;10.870;2023-09-07T10:07:48;5.05;;;4.40;;
70705;SDS011;59320;52.316;10.870;2023-09-07T10:10:17;6.68;;;4.35;;
70705;SDS011;59320;52.316;10.870;2023-09-07T10:12:50;6.50;;;4.20;;
70705;SDS011;59320;52.316;10.870;2023-09-07T10:15:19;5.40;;;4.37;;
70705;SDS011;59320;52.316;10.870;2023-09-07T10:17:55;4.82;;;4.32;;
70705;SDS011;59320;52.316;10.870;2023-09-07T10:20:30;5.97;;;4.53;;
70705;SDS011;59320;52.316;10.870;2023-09-07T10:23:13;6.95;;;4.47;;
70705;SDS011;59320;52.316;10.870;2023-09-07T10:25:40;10.05;;;4.30;;
70705;SDS011;59320;52.316;10.870;2023-09-07T10:28:17;4.85;;;4.35;;
70705;SDS011;59320;52.316;10.870;2023-09-07T10:30:45;7.50;;;5.07;;
70705;SDS011;59320;52.316;10.870;2023-09-07T10:33:24;5.07;;;4.47;;
70705;SDS011;59320;52.316;10.870;2023-09-07T10:35:52;5.18;;;4.15;;
70705;SDS011;59320;52.316;10.870;2023-09-07T10:38:19;4.45;;;4.05;;
70705;SDS011;59320;52.316;10.870;2023-09-07T10:40:47;7.60;;;4.63;;
70705;SDS011;59320;52.316;10.870;2023-09-07T10:43:14;6.28;;;4.63;;
70705;SDS011;59320;52.316;10.870;2023-09-07T10:45:43;6.57;;;4.20;;
70705;SDS011;59320;52.316;10.870;2023-09-07T10:48:11;5.07;;;4.15;;
70705;SDS011;59320;52.316;10.870;2023-09-07T10:50:43;5.38;;;4.32;;
70705;SDS011;59320;52.316;10.870;2023-09-07T10:53:11;5.72;;;4.18;;
70705;SDS011;59320;52.316;10.870;2023-09-07T10:58:24;10.70;;;4.95;;
70705;SDS011;59320;52.316;10.870;2023-09-07T11:00:53;6.17;;;4.40;;
70705;SDS011;59320;52.316;10.870;2023-09-07T11:03:20;5.35;;;4.03;;
70705;SDS011;59320;52.316;10.870;2023-09-07T11:05:49;4.68;;;3.80;;
70705;SDS011;59320;52.316;10.870;2023-09-07T11:08:25;6.25;;;3.90;;
70705;SDS011;59320;52.316;10.870;2023-09-07T11:11:04;5.97;;;3.97;;
70705;SDS011;59320;52.316;10.870;2023-09-07T11:13:33;5.53;;;4.38;;
70705;SDS011;59320;52.316;10.870;2023-09-07T11:16:01;4.50;;;4.07;;
70705;SDS011;59320;52.316;10.870;2023-09-07T11:18:29;4.85;;;3.90;;
70705;SDS011;59320;52.316;10.870;2023-09-07T11:20:57;5.30;;;4.05;;
70705;SDS011;59320;52.316;10.870;2023-09-07T11:23:28;4.55;;;4.03;;
70705;SDS011;59320;52.316;10.870;2023-09-07T11:26:03;5.22;;;4.00;;
70705;SDS011;59320;52.316;10.870;2023-09-07T11:28:31;4.63;;;4.15;;
70705;SDS011;59320;52.316;10.870;2023-09-07T11:30:58;4.32;;;3.83;;
70705;SDS011;59320;52.316;10.870;2023-09-07T11:33:26;6.78;;;3.92;;
70705;SDS011;59320;52.316;10.870;2023-09-07T11:36:02;5.68;;;3.80;;
70705;SDS011;59320;52.316;10.870;2023-09-07T11:38:30;4.10;;;3.70;;
70705;SDS011;59320;52.316;10.870;2023-09-07T11:41:03;4.13;;;3.72;;
70705;SDS011;59320;52.316;10.870;2023-09-07T11:43:30;3.78;;;3.45;;
70705;SDS011;59320;52.316;10.870;2023-09-07T11:45:58;4.20;;;3.78;;
70705;SDS011;59320;52.316;10.870;2023-09-07T11:48:29;4.68;;;3.70;;
70705;SDS011;59320;52.316;10.870;2023-09-07T11:50:57;7.03;;;3.90;;
70705;SDS011;59320;52.316;10.870;2023-09-07T11:53:26;4.15;;;3.40;;
70705;SDS011;59320;52.316;10.870;2023-09-07T11:55:54;3.70;;;3.10;;
70705;SDS011;59320;52.316;10.870;2023-09-07T11:58:22;5.80;;;3.75;;
70705;SDS011;59320;52.316;10.870;2023-09-07T12:00:50;6.60;;;3.53;;
70705;SDS011;59320;52.316;10.870;2023-09-07T12:03:18;5.18;;;3.88;;
70705;SDS011;59320;52.316;10.870;2023-09-07T12:05:45;5.00;;;3.72;;
70705;SDS011;59320;52.316;10.870;2023-09-07T12:12:33;5.50;;;3.70;;
70705;SDS011;59320;52.316;10.870;2023-09-07T12:15:00;4.35;;;3.75;;
70705;SDS011;59320;52.316;10.870;2023-09-07T12:17:29;3.90;;;3.45;;
70705;SDS011;59320;52.316;10.870;2023-09-07T12:19:57;4.10;;;3.42;;
70705;SDS011;59320;52.316;10.870;2023-09-07T12:25:16;4.60;;;3.40;;
70705;SDS011;59320;52.316;10.870;2023-09-07T12:27:45;5.30;;;3.53;;
70705;SDS011;59320;52.316;10.870;2023-09-07T12:30:13;4.70;;;3.60;;
70705;SDS011;59320;52.316;10.870;2023-09-07T12:32:44;4.57;;;3.35;;
70705;SDS011;59320;52.316;10.870;2023-09-07T12:35:11;7.28;;;3.78;;
70705;SDS011;59320;52.316;10.870;2023-09-07T12:37:38;5.50;;;4.07;;
70705;SDS011;59320;52.316;10.870;2023-09-07T12:40:46;5.93;;;3.65;;
70705;SDS011;59320;52.316;10.870;2023-09-07T12:43:35;4.75;;;3.72;;
70705;SDS011;59320;52.316;10.870;2023-09-07T12:46:03;5.65;;;3.70;;
70705;SDS011;59320;52.316;10.870;2023-09-07T12:48:30;4.30;;;3.80;;
70705;SDS011;59320;52.316;10.870;2023-09-07T12:50:57;3.72;;;3.35;;
70705;SDS011;59320;52.316;10.870;2023-09-07T12:53:24;6.88;;;3.78;;
70705;SDS011;59320;52.316;10.870;2023-09-07T12:55:51;7.28;;;3.22;;
70705;SDS011;59320;52.316;10.870;2023-09-07T12:58:18;8.30;;;3.70;;
70705;SDS011;59320;52.316;10.870;2023-09-07T13:00:47;9.20;;;4.35;;
70705;SDS011;59320;52.316;10.870;2023-09-07T13:03:16;5.78;;;3.83;;
70705;SDS011;59320;52.316;10.870;2023-09-07T13:05:43;8.15;;;4.07;;
70705;SDS011;59320;52.316;10.870;2023-09-07T13:08:11;7.13;;;4.30;;
70705;SDS011;59320;52.316;10.870;2023-09-07T13:10:38;8.80;;;4.50;;
70705;SDS011;59320;52.316;10.870;2023-09-07T13:13:05;6.97;;;3.70;;
70705;SDS011;59320;52.316;10.870;2023-09-07T13:15:33;5.07;;;3.92;;
70705;SDS011;59320;52.316;10.870;2023-09-07T13:18:01;5.00;;;3.97;;
70705;SDS011;59320;52.316;10.870;2023-09-07T13:20:28;5.47;;;4.20;;
70705;SDS011;59320;52.316;10.870;2023-09-07T13:22:56;6.35;;;4.05;;
70705;SDS011;59320;52.316;10.870;2023-09-07T13:25:23;6.85;;;4.47;;
70705;SDS011;59320;52.316;10.870;2023-09-07T13:27:51;6.97;;;4.40;;
70705;SDS011;59320;52.316;10.870;2023-09-07T13:30:18;4.45;;;4.05;;
70705;SDS011;59320;52.316;10.870;2023-09-07T13:32:45;5.80;;;3.90;;
70705;SDS011;59320;52.316;10.870;2023-09-07T13:35:14;5.25;;;4.30;;
70705;SDS011;59320;52.316;10.870;2023-09-07T13:37:41;7.35;;;4.35;;
70705;SDS011;59320;52.316;10.870;2023-09-07T13:40:09;6.15;;;4.03;;
70705;SDS011;59320;52.316;10.870;2023-09-07T13:42:36;6.72;;;4.30;;
70705;SDS011;59320;52.316;10.870;2023-09-07T13:45:06;5.13;;;4.35;;
70705;SDS011;59320;52.316;10.870;2023-09-07T13:47:33;5.82;;;4.30;;
70705;SDS011;59320;52.316;10.870;2023-09-07T13:50:01;4.30;;;3.90;;
70705;SDS011;59320;52.316;10.870;2023-09-07T13:52:29;7.43;;;4.10;;
70705;SDS011;59320;52.316;10.870;2023-09-07T13:54:56;7.35;;;4.00;;
70705;SDS011;59320;52.316;10.870;2023-09-07T13:57:24;6.20;;;3.80;;
70705;SDS011;59320;52.316;10.870;2023-09-07T13:59:51;4.43;;;4.03;;
70705;SDS011;59320;52.316;10.870;2023-09-07T14:02:18;6.32;;;4.00;;
70705;SDS011;59320;52.316;10.870;2023-09-07T14:04:45;4.40;;;4.00;;
70705;SDS011;59320;52.316;10.870;2023-09-07T14:07:12;4.32;;;3.90;;
70705;SDS011;59320;52.316;10.870;2023-09-07T14:09:40;6.28;;;4.05;;
70705;SDS011;59320;52.316;10.870;2023-09-07T14:12:08;5.15;;;4.07;;
70705;SDS011;59320;52.316;10.870;2023-09-07T14:14:35;6.07;;;3.88;;
70705;SDS011;59320;52.316;10.870;2023-09-07T14:17:03;4.88;;;3.38;;
70705;SDS011;59320;52.316;10.870;2023-09-07T14:19:31;5.75;;;3.92;;
70705;SDS011;59320;52.316;10.870;2023-09-07T14:21:58;3.92;;;3.53;;
70705;SDS011;59320;52.316;10.870;2023-09-07T14:24:25;6.97;;;3.40;;
70705;SDS011;59320;52.316;10.870;2023-09-07T14:26:54;3.90;;;3.50;;
70705;SDS011;59320;52.316;10.870;2023-09-07T14:29:21;4.43;;;3.58;;
70705;SDS011;59320;52.316;10.870;2023-09-07T14:31:48;4.55;;;3.40;;
70705;SDS011;59320;52.316;10.870;2023-09-07T14:34:15;4.40;;;3.22;;
70705;SDS011;59320;52.316;10.870;2023-09-07T14:36:43;4.18;;;3.20;;
70705;SDS011;59320;52.316;10.870;2023-09-07T14:39:10;4.55;;;2.78;;
70705;SDS011;59320;52.316;10.870;2023-09-07T14:41:37;4.35;;;3.22;;
70705;SDS011;59320;52.316;10.870;2023-09-07T14:44:07;3.20;;;2.90;;
70705;SDS011;59320;52.316;10.870;2023-09-07T14:46:35;4.15;;;2.90;;
70705;SDS011;59320;52.316;10.870;2023-09-07T14:49:02;6.47;;;3.33;;
70705;SDS011;59320;52.316;10.870;2023-09-07T14:51:30;4.53;;;3.22;;
70705;SDS011;59320;52.316;10.870;2023-09-07T14:53:57;3.65;;;3.08;;
70705;SDS011;59320;52.316;10.870;2023-09-07T14:56:24;3.90;;;2.92;;
70705;SDS011;59320;52.316;10.870;2023-09-07T14:58:53;4.05;;;3.03;;
70705;SDS011;59320;52.316;10.870;2023-09-07T15:01:22;3.92;;;2.80;;
70705;SDS011;59320;52.316;10.870;2023-09-07T15:03:49;5.28;;;3.13;;